Time;durP1;ratioP1;P1;durP2;ratioP2;P2;SDS_P1;SDS_P2;PMS_P1;PMS_P2;Temp;Humidity;BMP_temperature;BMP_pressure;BME280_temperature;BME280_humidity;BME280_pressure;Samples;Min_cycle;Max_cycle;Signal;HPM_P1;HPM_P2
2022/06/13 00:00:50;;;;;;;3.58;3.20;;;;;;;;;;5050994;28;20029;-72
2022/06/13 00:03:16;;;;;;;4.38;3.50;;;;;;;;;;5050886;28;20131;-72
2022/06/13 00:05:41;;;;;;;5.85;3.90;;;;;;;;;;5050207;28;20545;-72
2022/06/13 00:08:07;;;;;;;7.75;3.70;;;;;;;;;;5051005;28;20037;-72
2022/06/13 00:10:33;;;;;;;6.05;3.65;;;;;;;;;;5050947;28;20234;-70
2022/06/13 00:12:58;;;;;;;4.75;3.95;;;;;;;;;;5050778;28;20402;-72
2022/06/13 00:15:24;;;;;;;4.90;3.95;;;;;;;;;;5050215;28;20124;-70
2022/06/13 00:17:49;;;;;;;4.38;3.70;;;;;;;;;;5050894;28;20040;-71
2022/06/13 00:20:14;;;;;;;6.03;3.50;;;;;;;;;;5032970;28;20037;-70
2022/06/13 00:22:40;;;;;;;4.20;3.80;;;;;;;;;;5050757;28;20033;-71
2022/06/13 00:25:06;;;;;;;6.43;3.25;;;;;;;;;;5050596;28;20036;-71
2022/06/13 00:27:32;;;;;;;10.52;3.45;;;;;;;;;;5050674;28;20037;-71
2022/06/13 00:29:57;;;;;;;6.63;3.20;;;;;;;;;;5016500;28;20036;-70
2022/06/13 00:32:23;;;;;;;5.07;2.85;;;;;;;;;;5050614;28;20041;-71
2022/06/13 00:34:50;;;;;;;2.78;2.58;;;;;;;;;;5050781;28;20141;-70
2022/06/13 00:37:16;;;;;;;7.85;2.65;;;;;;;;;;5050078;28;20421;-71
2022/06/13 00:39:42;;;;;;;2.92;2.00;;;;;;;;;;5051266;28;20041;-70
2022/06/13 00:42:08;;;;;;;1.98;1.67;;;;;;;;;;5050418;28;20108;-70
2022/06/13 00:44:36;;;;;;;3.45;1.80;;;;;;;;;;5050422;28;20132;-70
2022/06/13 00:47:03;;;;;;;1.83;1.58;;;;;;;;;;5050090;28;20037;-70
2022/06/13 00:49:49;;;;;;;3.05;1.90;;;;;;;;;;5054349;28;20124;-70
2022/06/13 00:52:20;;;;;;;2.05;1.88;;;;;;;;;;5053751;28;20041;-70
2022/06/13 00:54:48;;;;;;;5.03;1.83;;;;;;;;;;5036010;28;20124;-70
2022/06/13 00:57:18;;;;;;;3.05;2.08;;;;;;;;;;5053653;28;20477;-70
2022/06/13 00:59:45;;;;;;;2.80;2.38;;;;;;;;;;5036397;28;20094;-70
2022/06/13 01:02:11;;;;;;;3.00;2.70;;;;;;;;;;5036054;28;20486;-70
2022/06/13 01:04:37;;;;;;;2.72;2.38;;;;;;;;;;5053936;28;20044;-70
2022/06/13 01:07:03;;;;;;;3.05;2.50;;;;;;;;;;5053369;28;20037;-70
2022/06/13 01:12:14;;;;;;;3.38;2.88;;;;;;;;;;5053557;28;20033;-70
2022/06/13 01:14:58;;;;;;;3.28;2.92;;;;;;;;;;5036301;28;20091;-70
2022/06/13 01:17:43;;;;;;;3.78;2.65;;;;;;;;;;5035874;28;20098;-70
2022/06/13 01:20:33;;;;;;;6.18;2.95;;;;;;;;;;5053953;28;20044;-70
2022/06/13 01:23:20;;;;;;;5.03;3.00;;;;;;;;;;5067902;22;20450;-68
2022/06/13 01:26:09;;;;;;;3.47;3.10;;;;;;;;;;5072999;28;20174;-68
2022/06/13 01:28:53;;;;;;;5.38;3.45;;;;;;;;;;5055723;28;20043;-68
2022/06/13 01:31:29;;;;;;;3.95;3.58;;;;;;;;;;5073409;28;20032;-68
2022/06/13 01:34:03;;;;;;;4.80;3.60;;;;;;;;;;5072514;28;20504;-68
2022/06/13 01:36:45;;;;;;;4.65;4.13;;;;;;;;;;5054973;28;20070;-68
2022/06/13 01:39:32;;;;;;;4.83;3.70;;;;;;;;;;5073501;28;20519;-68
2022/06/13 01:42:24;;;;;;;5.35;4.07;;;;;;;;;;5055732;28;20266;-68
2022/06/13 01:45:04;;;;;;;4.28;3.75;;;;;;;;;;5073025;28;20036;-68
2022/06/13 01:47:31;;;;;;;5.85;4.35;;;;;;;;;;5072789;28;20038;-69
2022/06/13 01:50:02;;;;;;;6.50;4.18;;;;;;;;;;5050241;28;20029;-68
2022/06/13 01:52:49;;;;;;;9.35;4.30;;;;;;;;;;5052963;28;20029;-68
2022/06/13 01:55:36;;;;;;;7.55;4.07;;;;;;;;;;5053050;28;20037;-68
2022/06/13 01:58:07;;;;;;;5.18;4.00;;;;;;;;;;5053185;28;20735;-68
2022/06/13 02:00:35;;;;;;;6.43;3.60;;;;;;;;;;5052269;28;20044;-68
2022/06/13 02:03:10;;;;;;;6.93;4.32;;;;;;;;;;5052927;28;20036;-68
2022/06/13 02:05:43;;;;;;;6.75;4.45;;;;;;;;;;5052256;28;20036;-68
2022/06/13 02:08:18;;;;;;;4.85;3.90;;;;;;;;;;5053034;28;20175;-68
2022/06/13 02:10:54;;;;;;;4.47;4.07;;;;;;;;;;5052943;28;20029;-68
2022/06/13 02:13:49;;;;;;;4.65;4.22;;;;;;;;;;5052577;28;20678;-68
2022/06/13 02:16:31;;;;;;;9.10;4.90;;;;;;;;;;5052526;28;20120;-68
2022/06/13 02:19:03;;;;;;;5.80;4.40;;;;;;;;;;5052868;28;20041;-68
2022/06/13 02:21:48;;;;;;;6.82;4.93;;;;;;;;;;5052578;28;20033;-68
2022/06/13 02:24:18;;;;;;;6.53;4.97;;;;;;;;;;5052272;28;20032;-68
2022/06/13 02:26:48;;;;;;;7.78;5.20;;;;;;;;;;5052269;28;20462;-69
2022/06/13 02:29:25;;;;;;;5.40;4.90;;;;;;;;;;5052568;28;20094;-68
2022/06/13 02:31:56;;;;;;;5.72;4.90;;;;;;;;;;5052420;28;20040;-68
2022/06/13 02:34:34;;;;;;;14.73;5.33;;;;;;;;;;5052139;28;20573;-68
2022/06/13 02:37:11;;;;;;;9.65;5.55;;;;;;;;;;5034003;28;20060;-69
2022/06/13 02:39:45;;;;;;;8.13;6.20;;;;;;;;;;5052442;28;20048;-69
2022/06/13 02:42:32;;;;;;;11.18;6.35;;;;;;;;;;5051986;28;20074;-68
2022/06/13 02:45:06;;;;;;;9.15;5.93;;;;;;;;;;5052271;28;20033;-68
2022/06/13 02:47:43;;;;;;;7.32;5.75;;;;;;;;;;5051695;28;20512;-69
2022/06/13 02:50:31;;;;;;;7.90;6.38;;;;;;;;;;5051978;28;20033;-68
2022/06/13 02:53:06;;;;;;;7.82;5.97;;;;;;;;;;5051973;28;20072;-69
2022/06/13 02:55:40;;;;;;;11.88;6.70;;;;;;;;;;5051282;28;20049;-69
2022/06/13 02:58:36;;;;;;;7.35;6.10;;;;;;;;;;5051968;28;20548;-69
2022/06/13 03:01:13;;;;;;;5.30;4.80;;;;;;;;;;5051978;28;20039;-69
2022/06/13 03:04:00;;;;;;;6.57;5.88;;;;;;;;;;5051742;28;20396;-69
2022/06/13 03:06:42;;;;;;;11.18;5.03;;;;;;;;;;5051350;28;20126;-69
2022/06/13 03:09:17;;;;;;;6.55;4.60;;;;;;;;;;5051777;28;20037;-69
2022/06/13 03:11:59;;;;;;;5.70;4.50;;;;;;;;;;5048885;28;20041;-69
2022/06/13 03:14:40;;;;;;;8.45;5.32;;;;;;;;;;5051440;28;20048;-69
2022/06/13 03:17:17;;;;;;;10.10;4.75;;;;;;;;;;5051104;28;20033;-69
2022/06/13 03:20:08;;;;;;;4.50;4.10;;;;;;;;;;5051518;28;20037;-69
2022/06/13 03:22:57;;;;;;;5.90;3.78;;;;;;;;;;5051481;28;20072;-69
2022/06/13 03:25:45;;;;;;;7.20;3.60;;;;;;;;;;5051392;28;20497;-69
2022/06/13 03:28:22;;;;;;;5.55;3.40;;;;;;;;;;5051446;28;20512;-69
2022/06/13 03:30:52;;;;;;;3.35;3.05;;;;;;;;;;5051134;28;20033;-69
2022/06/13 03:33:40;;;;;;;5.22;3.50;;;;;;;;;;5051304;28;20036;-69
2022/06/13 03:36:27;;;;;;;4.07;3.40;;;;;;;;;;5050599;28;20039;-69
2022/06/13 03:39:20;;;;;;;4.18;3.78;;;;;;;;;;5051349;28;20564;-69
2022/06/13 03:41:53;;;;;;;5.20;4.10;;;;;;;;;;5051367;28;20021;-69
2022/06/13 03:44:30;;;;;;;5.43;4.50;;;;;;;;;;5047994;28;20048;-69
2022/06/13 03:47:09;;;;;;;5.15;4.68;;;;;;;;;;5050655;28;20071;-71
2022/06/13 03:49:37;;;;;;;8.98;6.00;;;;;;;;;;5051219;28;20090;-69
2022/06/13 03:52:07;;;;;;;5.80;5.20;;;;;;;;;;5051134;28;20648;-69
2022/06/13 03:54:39;;;;;;;7.13;5.50;;;;;;;;;;5048070;28;20051;-70
2022/06/13 03:57:29;;;;;;;9.07;6.40;;;;;;;;;;5050513;28;20033;-69
2022/06/13 04:00:04;;;;;;;10.23;9.20;;;;;;;;;;5050874;28;20041;-69
2022/06/13 04:02:33;;;;;;;9.95;7.20;;;;;;;;;;5032967;28;20489;-69
2022/06/13 04:04:59;;;;;;;10.07;7.47;;;;;;;;;;5050979;28;20062;-69
2022/06/13 04:07:27;;;;;;;9.80;7.45;;;;;;;;;;5050347;28;20041;-69
2022/06/13 04:10:08;;;;;;;12.23;8.35;;;;;;;;;;5051288;28;20095;-68
2022/06/13 04:13:04;;;;;;;12.20;8.47;;;;;;;;;;5051054;28;20029;-69
2022/06/13 04:15:36;;;;;;;10.00;7.68;;;;;;;;;;5047121;28;20341;-69
2022/06/13 04:18:17;;;;;;;8.88;7.97;;;;;;;;;;5050997;28;20597;-69
2022/06/13 04:20:48;;;;;;;8.13;7.32;;;;;;;;;;5050929;28;20025;-69
2022/06/13 04:23:28;;;;;;;10.07;8.07;;;;;;;;;;5052434;28;20044;-69
2022/06/13 04:26:12;;;;;;;10.13;8.05;;;;;;;;;;5051128;28;20102;-69
2022/06/13 04:28:45;;;;;;;13.00;7.85;;;;;;;;;;5054848;28;20123;-68
2022/06/13 04:31:13;;;;;;;9.52;7.60;;;;;;;;;;5054607;28;20037;-69
2022/06/13 04:33:46;;;;;;;8.15;6.88;;;;;;;;;;5054527;28;20098;-68
2022/06/13 04:36:14;;;;;;;8.77;6.72;;;;;;;;;;5053988;28;20037;-68
2022/06/13 04:38:44;;;;;;;11.32;8.02;;;;;;;;;;5054465;28;20037;-68
2022/06/13 04:41:11;;;;;;;9.27;7.82;;;;;;;;;;5054378;28;20040;-68
2022/06/13 04:43:41;;;;;;;11.13;7.70;;;;;;;;;;5054275;28;20033;-68
2022/06/13 04:46:14;;;;;;;9.25;7.50;;;;;;;;;;5053813;28;20043;-68
2022/06/13 04:48:43;;;;;;;11.05;8.40;;;;;;;;;;5054480;28;20043;-68
2022/06/13 04:51:12;;;;;;;8.07;7.00;;;;;;;;;;5053946;28;20036;-68
2022/06/13 04:53:55;;;;;;;11.95;6.97;;;;;;;;;;5053994;28;20051;-68
2022/06/13 04:56:22;;;;;;;7.82;7.00;;;;;;;;;;5053621;28;20508;-68
2022/06/13 04:58:52;;;;;;;11.27;7.72;;;;;;;;;;5054237;28;20485;-68
2022/06/13 05:01:24;;;;;;;11.50;7.78;;;;;;;;;;5054163;28;20112;-69
2022/06/13 05:03:51;;;;;;;14.38;7.60;;;;;;;;;;5053766;28;20025;-68
2022/06/13 05:06:16;;;;;;;8.10;6.20;;;;;;;;;;5053417;28;20391;-69
2022/06/13 05:08:42;;;;;;;8.52;5.63;;;;;;;;;;5054134;28;20033;-69
2022/06/13 05:11:19;;;;;;;9.93;6.38;;;;;;;;;;5036044;28;20503;-68
2022/06/13 05:13:48;;;;;;;6.50;5.40;;;;;;;;;;5053816;28;20087;-68
2022/06/13 05:16:29;;;;;;;11.82;6.40;;;;;;;;;;5053268;28;20055;-68
2022/06/13 05:19:09;;;;;;;8.68;6.00;;;;;;;;;;5053659;28;20041;-69
2022/06/13 05:21:49;;;;;;;8.13;6.28;;;;;;;;;;5053889;28;20056;-68
2022/06/13 05:24:38;;;;;;;7.93;5.72;;;;;;;;;;5053445;28;20493;-69
2022/06/13 05:27:06;;;;;;;6.10;4.68;;;;;;;;;;5053069;28;20029;-68
2022/06/13 05:29:33;;;;;;;5.28;4.78;;;;;;;;;;5053543;28;20041;-68
2022/06/13 05:31:58;;;;;;;5.40;4.57;;;;;;;;;;5053445;28;20032;-68
2022/06/13 05:34:32;;;;;;;5.88;4.80;;;;;;;;;;5052126;28;20052;-68
2022/06/13 05:36:58;;;;;;;6.65;5.10;;;;;;;;;;5052846;28;20120;-68
2022/06/13 05:39:24;;;;;;;7.68;5.07;;;;;;;;;;5035641;28;20060;-68
2022/06/13 05:41:49;;;;;;;4.55;4.10;;;;;;;;;;5053358;28;20506;-69
2022/06/13 05:44:15;;;;;;;10.13;4.03;;;;;;;;;;5052982;28;20040;-68
2022/06/13 05:46:40;;;;;;;3.47;3.17;;;;;;;;;;5052931;28;20488;-69
2022/06/13 05:49:06;;;;;;;5.78;3.38;;;;;;;;;;5053234;28;20041;-68
2022/06/13 05:51:32;;;;;;;4.72;3.97;;;;;;;;;;5053118;28;20032;-68
2022/06/13 05:53:58;;;;;;;4.13;3.33;;;;;;;;;;5052854;28;20040;-68
2022/06/13 05:56:25;;;;;;;3.42;3.13;;;;;;;;;;5052419;28;20051;-69
2022/06/13 05:58:51;;;;;;;4.50;3.10;;;;;;;;;;5053230;28;20048;-69
2022/06/13 06:01:17;;;;;;;5.28;3.60;;;;;;;;;;5053128;28;20056;-69
2022/06/13 06:03:44;;;;;;;6.47;3.08;;;;;;;;;;5052858;28;20075;-69
2022/06/13 06:06:13;;;;;;;4.22;3.05;;;;;;;;;;5052356;28;20033;-69
2022/06/13 06:08:40;;;;;;;3.72;3.20;;;;;;;;;;5053220;28;20419;-69
2022/06/13 06:11:05;;;;;;;5.82;3.20;;;;;;;;;;5052749;28;20037;-68
2022/06/13 06:13:31;;;;;;;4.05;3.00;;;;;;;;;;5052585;28;20036;-69
2022/06/13 06:15:59;;;;;;;4.47;2.88;;;;;;;;;;5050947;28;20440;-69
2022/06/13 06:18:25;;;;;;;5.28;2.92;;;;;;;;;;5052293;28;20060;-69
2022/06/13 06:20:51;;;;;;;3.70;3.40;;;;;;;;;;5052395;28;20061;-68
2022/06/13 06:23:17;;;;;;;6.10;3.45;;;;;;;;;;5052368;28;20083;-69
2022/06/13 06:25:44;;;;;;;6.85;3.17;;;;;;;;;;5049822;28;20041;-69
2022/06/13 06:28:22;;;;;;;4.38;3.20;;;;;;;;;;5034513;28;20401;-68
2022/06/13 06:30:48;;;;;;;4.25;3.40;;;;;;;;;;5052451;28;20520;-69
2022/06/13 06:33:14;;;;;;;4.65;2.85;;;;;;;;;;5052258;28;20076;-69
2022/06/13 06:35:40;;;;;;;3.63;3.03;;;;;;;;;;5052063;28;20556;-69
2022/06/13 06:38:06;;;;;;;5.78;3.60;;;;;;;;;;5051910;28;20033;-68
2022/06/13 06:40:32;;;;;;;4.53;3.08;;;;;;;;;;5052402;28;20116;-68
2022/06/13 06:42:57;;;;;;;3.67;2.75;;;;;;;;;;5052031;28;20033;-68
2022/06/13 06:45:25;;;;;;;3.83;2.78;;;;;;;;;;5051877;28;20041;-68
2022/06/13 06:47:52;;;;;;;3.22;2.45;;;;;;;;;;5051653;28;20405;-68
2022/06/13 06:50:20;;;;;;;3.55;2.40;;;;;;;;;;5051810;28;20620;-68
2022/06/13 06:52:46;;;;;;;4.22;2.10;;;;;;;;;;5052054;28;20163;-68
2022/06/13 07:00:44;;;;;;;2.47;1.80;;;;;;;;;;5051758;28;20047;-68
2022/06/13 07:03:09;;;;;;;2.50;1.88;;;;;;;;;;5051670;28;20124;-69
2022/06/13 07:05:35;;;;;;;3.05;1.80;;;;;;;;;;5051733;28;20112;-68
2022/06/13 07:08:00;;;;;;;1.92;1.48;;;;;;;;;;5051232;28;20039;-68
2022/06/13 07:10:25;;;;;;;2.40;1.40;;;;;;;;;;5034021;28;20127;-71
2022/06/13 07:12:51;;;;;;;1.55;1.40;;;;;;;;;;5051540;28;20044;-68
2022/06/13 07:15:18;;;;;;;2.08;1.50;;;;;;;;;;5051515;28;20075;-69
2022/06/13 07:17:43;;;;;;;3.90;1.67;;;;;;;;;;5050983;28;20036;-69
2022/06/13 07:20:11;;;;;;;2.58;1.50;;;;;;;;;;5051562;28;20033;-68
2022/06/13 07:22:36;;;;;;;2.92;1.80;;;;;;;;;;5051334;28;20036;-69
2022/06/13 07:25:02;;;;;;;1.65;1.42;;;;;;;;;;5049438;28;20033;-70
2022/06/13 07:27:27;;;;;;;2.38;1.50;;;;;;;;;;5050842;28;20402;-69
2022/06/13 07:29:52;;;;;;;6.03;1.83;;;;;;;;;;5051313;28;20040;-69
2022/06/13 07:32:21;;;;;;;2.10;1.75;;;;;;;;;;5051085;28;20541;-70
2022/06/13 07:34:51;;;;;;;2.58;1.52;;;;;;;;;;5051223;28;20175;-69
2022/06/13 07:40:08;;;;;;;1.70;1.60;;;;;;;;;;5050927;28;20039;-69
2022/06/13 07:42:40;;;;;;;4.38;1.50;;;;;;;;;;5051029;28;20029;-68
2022/06/13 07:45:07;;;;;;;2.38;1.63;;;;;;;;;;5033402;28;20059;-68
2022/06/13 07:47:32;;;;;;;2.22;1.85;;;;;;;;;;5050679;28;20044;-70
2022/06/13 07:49:58;;;;;;;4.55;1.63;;;;;;;;;;5050936;28;20044;-68
2022/06/13 07:52:23;;;;;;;4.78;1.58;;;;;;;;;;5051038;28;20040;-68
2022/06/13 07:54:49;;;;;;;6.10;1.90;;;;;;;;;;5050886;28;20032;-68
2022/06/13 07:57:15;;;;;;;1.73;1.63;;;;;;;;;;5049697;28;20041;-69
2022/06/13 07:59:41;;;;;;;3.72;1.80;;;;;;;;;;5051126;28;20033;-69
2022/06/13 08:02:13;;;;;;;3.95;1.80;;;;;;;;;;5051138;28;20405;-68
2022/06/13 08:04:38;;;;;;;3.58;1.90;;;;;;;;;;5050874;28;20063;-68
2022/06/13 08:07:04;;;;;;;1.88;1.75;;;;;;;;;;5050264;28;20040;-67
2022/06/13 08:09:29;;;;;;;2.88;1.67;;;;;;;;;;5051064;28;20485;-68
2022/06/13 08:11:55;;;;;;;2.08;1.70;;;;;;;;;;5050850;28;20087;-68
2022/06/13 08:14:20;;;;;;;5.78;2.10;;;;;;;;;;5050724;28;20037;-68
2022/06/13 08:16:45;;;;;;;2.65;2.03;;;;;;;;;;5050395;28;20025;-70
2022/06/13 08:19:11;;;;;;;2.78;2.00;;;;;;;;;;5050766;28;20116;-68
2022/06/13 08:21:38;;;;;;;2.28;2.08;;;;;;;;;;5051018;28;20112;-68
2022/06/13 08:24:04;;;;;;;2.35;2.00;;;;;;;;;;5050267;28;20033;-68
2022/06/13 08:26:30;;;;;;;6.32;2.00;;;;;;;;;;5048449;28;20044;-68
2022/06/13 08:28:56;;;;;;;6.63;2.38;;;;;;;;;;5050836;28;20120;-69
2022/06/13 08:31:22;;;;;;;4.97;1.98;;;;;;;;;;5050951;28;20055;-69
2022/06/13 08:33:48;;;;;;;2.70;1.92;;;;;;;;;;5050535;28;20041;-68
2022/06/13 08:36:14;;;;;;;3.95;2.03;;;;;;;;;;5050075;28;20104;-69
2022/06/13 08:38:40;;;;;;;2.10;1.90;;;;;;;;;;5050774;28;20029;-68
2022/06/13 08:41:12;;;;;;;3.92;1.90;;;;;;;;;;5050717;28;20033;-68
2022/06/13 08:44:02;;;;;;;2.50;1.98;;;;;;;;;;5050574;28;20041;-68
2022/06/13 08:46:28;;;;;;;5.28;1.95;;;;;;;;;;5050027;28;20481;-68
2022/06/13 08:49:03;;;;;;;3.13;2.40;;;;;;;;;;5050566;28;20035;-68
2022/06/13 08:51:43;;;;;;;2.50;2.30;;;;;;;;;;5050620;28;20033;-68
2022/06/13 08:54:11;;;;;;;3.65;2.05;;;;;;;;;;5050477;28;20033;-68
2022/06/13 08:56:36;;;;;;;4.10;2.20;;;;;;;;;;5049990;28;20048;-68
2022/06/13 08:59:24;;;;;;;4.70;2.10;;;;;;;;;;5050507;28;20235;-68
2022/06/13 09:02:04;;;;;;;4.15;2.00;;;;;;;;;;5050384;28;20020;-68
2022/06/13 09:04:38;;;;;;;2.67;2.35;;;;;;;;;;5050381;28;20037;-68
2022/06/13 09:07:15;;;;;;;3.60;2.35;;;;;;;;;;5032324;28;20028;-68
2022/06/13 09:10:25;;;;;;;3.33;2.20;;;;;;;;;;5052678;28;20045;-68
2022/06/13 09:12:55;;;;;;;3.45;2.63;;;;;;;;;;5009980;28;20111;-68
2022/06/13 09:15:31;;;;;;;4.97;2.42;;;;;;;;;;5053869;28;20040;-70
2022/06/13 09:18:14;;;;;;;2.20;2.05;;;;;;;;;;5053216;28;20029;-68
2022/06/13 09:20:49;;;;;;;3.95;2.10;;;;;;;;;;5053692;28;20044;-70
2022/06/13 09:23:21;;;;;;;4.45;2.40;;;;;;;;;;5053601;28;20037;-68
2022/06/13 09:25:52;;;;;;;4.55;1.80;;;;;;;;;;5053792;28;20037;-69
2022/06/13 09:28:29;;;;;;;2.20;1.50;;;;;;;;;;5053162;28;20461;-68
2022/06/13 09:31:05;;;;;;;9.45;2.08;;;;;;;;;;5053638;28;20504;-68
2022/06/13 09:33:33;;;;;;;3.75;1.70;;;;;;;;;;5053456;28;20124;-68
2022/06/13 09:36:16;;;;;;;2.58;1.73;;;;;;;;;;5053273;28;20127;-68
2022/06/13 09:38:48;;;;;;;5.50;2.00;;;;;;;;;;5053536;28;20456;-69
2022/06/13 09:41:23;;;;;;;;;;;;;;;;;;5053953;28;20061;-69
2022/06/13 09:44:10;;;;;;;6.18;1.50;;;;;;;;;;5053202;28;19912;-68
2022/06/13 09:47:05;;;;;;;3.83;1.77;;;;;;;;;;5052752;28;20045;-68
2022/06/13 09:49:54;;;;;;;4.03;1.60;;;;;;;;;;5053315;28;20033;-68
2022/06/13 09:52:50;;;;;;;1.92;1.55;;;;;;;;;;5053167;28;20112;-68
2022/06/13 09:55:33;;;;;;;7.47;1.73;;;;;;;;;;5053165;28;20112;-68
2022/06/13 09:58:25;;;;;;;5.57;1.73;;;;;;;;;;5052548;28;20124;-68
2022/06/13 10:01:07;;;;;;;2.72;1.67;;;;;;;;;;5053019;28;20037;-68
2022/06/13 10:03:44;;;;;;;3.88;1.65;;;;;;;;;;5052907;28;20339;-68
2022/06/13 10:06:25;;;;;;;2.30;1.45;;;;;;;;;;5052305;28;20056;-68
2022/06/13 10:08:59;;;;;;;4.97;1.70;;;;;;;;;;5052974;28;20136;-69
2022/06/13 10:11:48;;;;;;;1.50;1.13;;;;;;;;;;5052812;28;20309;-69
2022/06/13 10:14:48;;;;;;;6.38;1.50;;;;;;;;;;5015031;28;20103;-69
2022/06/13 10:17:16;;;;;;;5.57;1.40;;;;;;;;;;5052209;28;20037;-69
2022/06/13 10:19:50;;;;;;;4.32;1.50;;;;;;;;;;5034692;28;20091;-69
2022/06/13 10:22:34;;;;;;;7.47;2.42;;;;;;;;;;5052270;28;20390;-69
2022/06/13 10:25:24;;;;;;;9.02;2.55;;;;;;;;;;5050458;28;20086;-67
2022/06/13 10:27:52;;;;;;;4.57;1.75;;;;;;;;;;5051944;28;20658;-67
2022/06/13 10:30:35;;;;;;;2.97;1.35;;;;;;;;;;5052575;28;20147;-69
2022/06/13 10:33:10;;;;;;;2.92;1.20;;;;;;;;;;5034438;28;20103;-67
2022/06/13 10:35:50;;;;;;;6.47;1.52;;;;;;;;;;5052227;28;20436;-68
2022/06/13 10:38:32;;;;;;;3.35;1.50;;;;;;;;;;5051985;28;20040;-68
2022/06/13 10:40:58;;;;;;;6.03;1.98;;;;;;;;;;5052442;28;20049;-68
2022/06/13 10:43:24;;;;;;;3.15;1.30;;;;;;;;;;5051984;28;20522;-67
2022/06/13 10:45:50;;;;;;;2.45;1.38;;;;;;;;;;5052091;28;20071;-69
2022/06/13 10:48:21;;;;;;;2.85;1.20;;;;;;;;;;5051607;28;20064;-67
2022/06/13 10:50:55;;;;;;;3.38;1.63;;;;;;;;;;5051963;28;20032;-68
2022/06/13 10:53:25;;;;;;;2.90;1.33;;;;;;;;;;5051963;28;20111;-68
2022/06/13 10:55:54;;;;;;;3.20;1.50;;;;;;;;;;5052154;28;20119;-68
2022/06/13 10:58:24;;;;;;;1.70;0.93;;;;;;;;;;5051504;28;20044;-67
2022/06/13 11:01:08;;;;;;;3.17;1.58;;;;;;;;;;5051715;28;20033;-68
2022/06/13 11:03:34;;;;;;;2.75;1.35;;;;;;;;;;5033844;28;20468;-68
2022/06/13 11:06:05;;;;;;;5.57;1.52;;;;;;;;;;5051733;28;20079;-67
2022/06/13 11:08:32;;;;;;;3.47;1.30;;;;;;;;;;5033217;28;20036;-68
2022/06/13 11:10:59;;;;;;;4.57;1.60;;;;;;;;;;5051503;28;20025;-68
2022/06/13 11:13:36;;;;;;;3.22;1.60;;;;;;;;;;5051448;28;20029;-69
2022/06/13 11:24:41;;;;;;;2.17;1.08;;;;;;;;;;5051439;28;20064;-70
2022/06/13 11:30:27;;;;;;;2.22;1.13;;;;;;;;;;5051637;28;20040;-69
2022/06/13 11:33:10;;;;;;;2.55;1.15;;;;;;;;;;5050630;28;20043;-69
2022/06/13 11:35:42;;;;;;;2.33;1.30;;;;;;;;;;5051308;28;20037;-71
2022/06/13 11:38:24;;;;;;;3.60;1.30;;;;;;;;;;5050791;28;20040;-70
2022/06/13 11:41:13;;;;;;;4.25;1.23;;;;;;;;;;5051422;28;20131;-70
2022/06/13 11:44:02;;;;;;;1.65;1.40;;;;;;;;;;5051026;28;20129;-70
2022/06/13 11:46:27;;;;;;;3.40;1.17;;;;;;;;;;5050733;28;20037;-70
2022/06/13 11:48:55;;;;;;;2.47;1.25;;;;;;;;;;5051173;28;20110;-70
2022/06/13 11:51:25;;;;;;;4.38;1.58;;;;;;;;;;5051193;28;20112;-71
2022/06/13 11:53:53;;;;;;;2.25;1.30;;;;;;;;;;5051082;28;20071;-70
2022/06/13 11:56:25;;;;;;;2.08;1.13;;;;;;;;;;5050610;28;20072;-70
2022/06/13 11:58:53;;;;;;;3.00;1.30;;;;;;;;;;5051055;28;20037;-71
2022/06/13 12:01:22;;;;;;;3.42;1.25;;;;;;;;;;5051161;28;20037;-70
2022/06/13 12:04:13;;;;;;;4.43;1.13;;;;;;;;;;5050951;28;20032;-69
2022/06/13 12:06:49;;;;;;;2.83;1.30;;;;;;;;;;5050474;28;20043;-70
2022/06/13 12:09:33;;;;;;;2.75;1.20;;;;;;;;;;5051136;28;20039;-70
2022/06/13 12:12:07;;;;;;;3.58;1.00;;;;;;;;;;5050739;28;20029;-69
2022/06/13 12:14:39;;;;;;;6.82;1.75;;;;;;;;;;5050723;28;20097;-70
2022/06/13 12:17:10;;;;;;;1.98;1.15;;;;;;;;;;5050463;28;20036;-69
2022/06/13 12:19:45;;;;;;;3.65;1.40;;;;;;;;;;5050867;28;20048;-69
2022/06/13 12:22:26;;;;;;;2.50;1.23;;;;;;;;;;5051032;28;20040;-69
2022/06/13 12:25:02;;;;;;;3.88;1.10;;;;;;;;;;5048959;28;20099;-69
2022/06/13 12:27:50;;;;;;;4.88;1.40;;;;;;;;;;5050236;28;20121;-69
2022/06/13 12:30:28;;;;;;;3.50;1.10;;;;;;;;;;5050954;28;20028;-69
2022/06/13 12:33:11;;;;;;;4.30;1.38;;;;;;;;;;5050687;28;20025;-70
2022/06/13 12:35:39;;;;;;;3.95;1.23;;;;;;;;;;5050634;28;20075;-69
2022/06/13 12:38:35;;;;;;;4.60;1.42;;;;;;;;;;5050425;28;20044;-70
2022/06/13 12:41:19;;;;;;;5.63;1.60;;;;;;;;;;5050782;28;20056;-70
2022/06/13 12:44:07;;;;;;;2.75;1.20;;;;;;;;;;5051590;28;20047;-70
2022/06/13 12:46:50;;;;;;;2.05;1.30;;;;;;;;;;5053772;28;20129;-70
2022/06/13 12:49:53;;;;;;;4.35;1.30;;;;;;;;;;5054590;28;20072;-70
2022/06/13 12:52:27;;;;;;;5.78;1.50;;;;;;;;;;5054139;28;20036;-70
2022/06/13 12:54:53;;;;;;;6.20;1.20;;;;;;;;;;5053973;28;20523;-70
2022/06/13 12:57:30;;;;;;;2.92;1.48;;;;;;;;;;5053350;28;20120;-69
2022/06/13 13:00:17;;;;;;;2.60;1.20;;;;;;;;;;5054318;28;20045;-69
2022/06/13 13:03:20;;;;;;;4.32;1.40;;;;;;;;;;5054168;28;20505;-69
2022/06/13 13:06:08;;;;;;;3.03;1.30;;;;;;;;;;5053955;28;20041;-69
2022/06/13 13:09:07;;;;;;;3.22;1.30;;;;;;;;;;5053720;28;20124;-70
2022/06/13 13:12:09;;;;;;;6.97;1.02;;;;;;;;;;5036162;28;20040;-69
2022/06/13 13:14:56;;;;;;;2.67;1.20;;;;;;;;;;5053661;28;20458;-72
2022/06/13 13:17:27;;;;;;;2.00;1.00;;;;;;;;;;5053542;28;20441;-69
2022/06/13 13:20:11;;;;;;;2.42;1.33;;;;;;;;;;5053906;28;20033;-71
2022/06/13 13:22:57;;;;;;;3.03;1.30;;;;;;;;;;5054399;28;20053;-71
2022/06/13 13:25:39;;;;;;;2.10;1.30;;;;;;;;;;5086108;22;20509;-71
2022/06/13 13:28:32;;;;;;;4.28;1.30;;;;;;;;;;5073108;28;20091;-71
2022/06/13 13:31:06;;;;;;;4.28;1.48;;;;;;;;;;5044787;28;20565;-72
2022/06/13 13:33:54;;;;;;;2.50;1.23;;;;;;;;;;5073395;28;20162;-72
2022/06/13 13:36:43;;;;;;;2.30;1.40;;;;;;;;;;5052734;28;20029;-72
2022/06/13 13:39:15;;;;;;;4.18;1.27;;;;;;;;;;5054465;28;20469;-71
2022/06/13 13:41:53;;;;;;;5.07;1.25;;;;;;;;;;5053760;28;20120;-71
2022/06/13 13:44:42;;;;;;;2.20;1.23;;;;;;;;;;5053137;28;20094;-71
2022/06/13 13:47:14;;;;;;;5.47;1.33;;;;;;;;;;5053050;28;20037;-71
2022/06/13 13:49:58;;;;;;;8.23;1.50;;;;;;;;;;5053551;28;20079;-71
2022/06/13 13:52:39;;;;;;;5.15;1.48;;;;;;;;;;5053175;28;20037;-71
2022/06/13 13:55:37;;;;;;;2.97;1.15;;;;;;;;;;5051837;28;20542;-72
2022/06/13 13:58:11;;;;;;;4.15;1.15;;;;;;;;;;5051971;28;20045;-72
2022/06/13 14:00:59;;;;;;;5.28;1.35;;;;;;;;;;5053194;28;20492;-72
2022/06/13 14:03:31;;;;;;;3.22;1.27;;;;;;;;;;5053042;28;20108;-72
2022/06/13 14:06:15;;;;;;;2.63;1.38;;;;;;;;;;5052919;28;20041;-72
2022/06/13 14:08:45;;;;;;;3.83;1.20;;;;;;;;;;5052387;28;20044;-72
2022/06/13 14:11:12;;;;;;;2.50;1.20;;;;;;;;;;5052778;28;20033;-72
2022/06/13 14:13:41;;;;;;;6.05;1.30;;;;;;;;;;5052866;28;20036;-72
2022/06/13 14:16:34;;;;;;;3.53;1.60;;;;;;;;;;5052464;28;20435;-72
2022/06/13 14:19:17;;;;;;;1.75;0.88;;;;;;;;;;5035081;28;20040;-72
2022/06/13 14:21:42;;;;;;;2.53;1.02;;;;;;;;;;5052713;28;20032;-71
2022/06/13 14:24:09;;;;;;;4.47;1.60;;;;;;;;;;5052663;28;20780;-72
2022/06/13 14:26:41;;;;;;;5.78;1.38;;;;;;;;;;5051997;28;20116;-72
2022/06/13 14:29:11;;;;;;;4.00;1.10;;;;;;;;;;5052656;28;20040;-72
2022/06/13 14:31:56;;;;;;;1.85;0.98;;;;;;;;;;5052453;28;20037;-72
2022/06/13 14:37:47;;;;;;;2.83;1.30;;;;;;;;;;5049597;28;20076;-72
2022/06/13 14:40:51;;;;;;;2.13;1.27;;;;;;;;;;5052366;28;20507;-72
2022/06/13 14:43:39;;;;;;;3.38;1.02;;;;;;;;;;5052296;28;20071;-73
2022/06/13 14:46:20;;;;;;;8.27;2.40;;;;;;;;;;5052101;28;20107;-72
2022/06/13 14:49:08;;;;;;;3.47;1.52;;;;;;;;;;5051468;28;20063;-72
2022/06/13 14:51:56;;;;;;;4.15;1.50;;;;;;;;;;5051581;28;20483;-72
2022/06/13 14:54:42;;;;;;;2.55;1.20;;;;;;;;;;5051840;28;20033;-72
2022/06/13 14:57:26;;;;;;;2.42;1.10;;;;;;;;;;5033679;28;20124;-72
2022/06/13 15:00:03;;;;;;;5.60;1.40;;;;;;;;;;5051795;28;20040;-72
2022/06/13 15:02:50;;;;;;;2.65;1.30;;;;;;;;;;5052018;28;20029;-72
2022/06/13 15:05:16;;;;;;;5.63;1.42;;;;;;;;;;5034119;28;20049;-72
2022/06/13 15:07:47;;;;;;;1.88;1.17;;;;;;;;;;5051169;28;20082;-72
2022/06/13 15:10:29;;;;;;;2.17;1.27;;;;;;;;;;5051462;28;20397;-71
2022/06/13 15:12:58;;;;;;;4.20;1.63;;;;;;;;;;5033924;28;20044;-72
2022/06/13 15:15:32;;;;;;;5.95;1.40;;;;;;;;;;5051510;28;20064;-71
2022/06/13 15:17:57;;;;;;;4.82;1.40;;;;;;;;;;5033108;28;20037;-71
2022/06/13 15:20:32;;;;;;;4.55;1.40;;;;;;;;;;5051233;28;20055;-72
2022/06/13 15:23:30;;;;;;;3.50;1.42;;;;;;;;;;5051715;28;20472;-71
2022/06/13 15:25:56;;;;;;;7.20;1.30;;;;;;;;;;5051226;28;20036;-71
2022/06/13 15:28:23;;;;;;;4.53;1.15;;;;;;;;;;5032948;28;20044;-71
2022/06/13 15:31:12;;;;;;;4.45;1.08;;;;;;;;;;5051445;28;20125;-71
2022/06/13 15:33:38;;;;;;;5.13;1.23;;;;;;;;;;5051371;28;20033;-71
2022/06/13 15:36:10;;;;;;;2.22;1.10;;;;;;;;;;5050931;28;20037;-72
2022/06/13 15:38:42;;;;;;;2.08;1.30;;;;;;;;;;5050747;28;20047;-72
2022/06/13 15:41:13;;;;;;;3.10;1.00;;;;;;;;;;5051310;28;20491;-72
2022/06/13 15:43:52;;;;;;;4.68;1.23;;;;;;;;;;5053458;28;20139;-71
2022/06/13 15:46:33;;;;;;;2.33;1.48;;;;;;;;;;5033445;28;20041;-71
2022/06/13 15:49:03;;;;;;;2.53;1.40;;;;;;;;;;5050816;28;20040;-71
2022/06/13 15:51:31;;;;;;;6.38;1.55;;;;;;;;;;5051144;28;20052;-71
2022/06/13 15:54:17;;;;;;;5.10;1.55;;;;;;;;;;5050946;28;20044;-71